Аэропорт
Междунаро́дный аэропо́рт То́кио (RJTT)

 RJTT / HND

Japan
JP-13
Токио
 35.55230, 139.78000  / 35 ft

 RJTT 201630Z 04011KT 9999 FEW020 BKN050 09/05 Q1032 NOSIG RMK 1CU020 7SC050 A3048
 TAF RJTT 201105Z 2012/2118 02012KT 9999 FEW020 BKN040 BECMG 2103/2106 18008KT BECMG 2115/2118 36006KT

2020 © VATRUS division (Privacy Policy)